CEB535 RPLC-WSSS
Flight info
| Callsign | CEB535 |
|---|---|
| Flight time | 3h 19m |
| Altitude | 20000 |
| Route | REPAT TR23 LUBAN/N0465F350 W3 OLRAX/N0465F340 M646 TOKON/N0467F350 M767 TODAM/N0460F360 M767 TOMAN |
| Aircraft | A320/M-SDE3FGHIRWY/LB1 |
Departure
| Time | 2026-05-07 20:14 |
|---|---|
| Airport | Clark International Airport / Clark Air Base (RPLC) |
Arrival
| Time | 2026-05-07 23:33 |
|---|---|
| Airport | Singapore Changi Airport (WSSS) |
| Time | Latitude | Longitude | Altitude | Speed | Heading |
|---|---|---|---|---|---|
| 2026-05-07 19:38 | 15.19592 | 120.56059 | 436 ft | 0 kts | 353° |
| 2026-05-07 20:02 | 15.19576 | 120.56061 | 424 ft | 4 kts | 353° |
| 2026-05-07 20:03 | 15.19549 | 120.56064 | 425 ft | 4 kts | 353° |
| 2026-05-07 20:03 | 15.19528 | 120.56067 | 423 ft | 4 kts | 347° |
| 2026-05-07 20:03 | 15.19503 | 120.56076 | 432 ft | 4 kts | 325° |
| 2026-05-07 20:03 | 15.19487 | 120.56093 | 430 ft | 3 kts | 300° |
| 2026-05-07 20:04 | 15.19475 | 120.56118 | 428 ft | 4 kts | 290° |
| 2026-05-07 20:04 | 15.19473 | 120.56123 | 425 ft | 0 kts | 291° |
| 2026-05-07 20:07 | 15.19478 | 120.56111 | 429 ft | 4 kts | 290° |
| 2026-05-07 20:07 | 15.19470 | 120.56074 | 423 ft | 7 kts | 225° |
| 2026-05-07 20:07 | 15.19418 | 120.56051 | 426 ft | 10 kts | 200° |
| 2026-05-07 20:08 | 15.19345 | 120.56023 | 432 ft | 13 kts | 200° |
| 2026-05-07 20:08 | 15.19252 | 120.55988 | 432 ft | 15 kts | 200° |
| 2026-05-07 20:08 | 15.19153 | 120.55965 | 427 ft | 15 kts | 157° |
| 2026-05-07 20:08 | 15.19076 | 120.56005 | 429 ft | 12 kts | 193° |
| 2026-05-07 20:09 | 15.18989 | 120.55972 | 433 ft | 15 kts | 201° |
| 2026-05-07 20:09 | 15.18885 | 120.55931 | 434 ft | 17 kts | 201° |
| 2026-05-07 20:09 | 15.18771 | 120.55886 | 424 ft | 18 kts | 201° |
| 2026-05-07 20:10 | 15.18527 | 120.55790 | 421 ft | 20 kts | 201° |
| 2026-05-07 20:10 | 15.18398 | 120.55739 | 436 ft | 20 kts | 201° |
| 2026-05-07 20:10 | 15.18263 | 120.55685 | 426 ft | 21 kts | 201° |
| 2026-05-07 20:10 | 15.18124 | 120.55630 | 434 ft | 22 kts | 201° |
| 2026-05-07 20:11 | 15.17981 | 120.55574 | 431 ft | 23 kts | 201° |
| 2026-05-07 20:11 | 15.17832 | 120.55516 | 425 ft | 23 kts | 201° |
| 2026-05-07 20:11 | 15.17683 | 120.55457 | 436 ft | 21 kts | 201° |
| 2026-05-07 20:11 | 15.17598 | 120.55496 | 425 ft | 14 kts | 118° |
| 2026-05-07 20:12 | 15.17554 | 120.55580 | 427 ft | 12 kts | 118° |
| 2026-05-07 20:12 | 15.17517 | 120.55651 | 433 ft | 10 kts | 118° |
| 2026-05-07 20:12 | 15.17485 | 120.55711 | 424 ft | 9 kts | 119° |
| 2026-05-07 20:12 | 15.17465 | 120.55783 | 435 ft | 10 kts | 73° |
| 2026-05-07 20:13 | 15.17516 | 120.55817 | 430 ft | 8 kts | 21° |
| 2026-05-07 20:13 | 15.17574 | 120.55839 | 422 ft | 15 kts | 20° |
| 2026-05-07 20:13 | 15.17868 | 120.55953 | 435 ft | 82 kts | 21° |
| 2026-05-07 20:13 | 15.18607 | 120.56246 | 436 ft | 143 kts | 21° |
| 2026-05-07 20:14 | 15.19671 | 120.56668 | 682 ft | 173 kts | 22° |
| 2026-05-07 20:14 | 15.20793 | 120.57133 | 1419 ft | 174 kts | 22° |
| 2026-05-07 20:14 | 15.21920 | 120.57605 | 2188 ft | 173 kts | 24° |
| 2026-05-07 20:14 | 15.23039 | 120.58068 | 2755 ft | 173 kts | 24° |
| 2026-05-07 20:15 | 15.24145 | 120.58547 | 3280 ft | 171 kts | 38° |
| 2026-05-07 20:15 | 15.24852 | 120.59485 | 3735 ft | 169 kts | 72° |
| 2026-05-07 20:15 | 15.24926 | 120.60748 | 3934 ft | 189 kts | 104° |
| 2026-05-07 20:15 | 15.24215 | 120.61957 | 4085 ft | 213 kts | 131° |
| 2026-05-07 20:16 | 15.23137 | 120.63106 | 4294 ft | 233 kts | 132° |
| 2026-05-07 20:16 | 15.21969 | 120.64336 | 4759 ft | 243 kts | 132° |
| 2026-05-07 20:16 | 15.20776 | 120.65591 | 5392 ft | 247 kts | 132° |
| 2026-05-07 20:16 | 15.19531 | 120.66909 | 5774 ft | 265 kts | 132° |
| 2026-05-07 20:17 | 15.18227 | 120.68295 | 6388 ft | 271 kts | 132° |
| 2026-05-07 20:17 | 15.16899 | 120.69705 | 7047 ft | 275 kts | 133° |
| 2026-05-07 20:17 | 15.15507 | 120.71080 | 7699 ft | 280 kts | 142° |
| 2026-05-07 20:17 | 15.13758 | 120.72015 | 8345 ft | 287 kts | 162° |
| 2026-05-07 20:18 | 15.11770 | 120.72286 | 8991 ft | 293 kts | 182° |
| 2026-05-07 20:18 | 15.09883 | 120.71943 | 9597 ft | 298 kts | 192° |
| 2026-05-07 20:18 | 15.07855 | 120.71451 | 10187 ft | 302 kts | 192° |
| 2026-05-07 20:18 | 15.05735 | 120.70941 | 10334 ft | 324 kts | 191° |
| 2026-05-07 20:19 | 15.03468 | 120.70403 | 10458 ft | 345 kts | 191° |
| 2026-05-07 20:19 | 15.01073 | 120.69837 | 10721 ft | 358 kts | 191° |
| 2026-05-07 20:19 | 14.98631 | 120.69260 | 11212 ft | 363 kts | 191° |
| 2026-05-07 20:19 | 14.96158 | 120.68672 | 11756 ft | 366 kts | 191° |
| 2026-05-07 20:20 | 14.94511 | 120.68281 | 12122 ft | 368 kts | 191° |
| 2026-05-07 20:20 | 14.91151 | 120.67484 | 12837 ft | 372 kts | 192° |
| 2026-05-07 20:20 | 14.88618 | 120.66881 | 13369 ft | 375 kts | 192° |
| 2026-05-07 20:20 | 14.86064 | 120.66274 | 13876 ft | 378 kts | 192° |
| 2026-05-07 20:21 | 14.83507 | 120.65579 | 14334 ft | 382 kts | 199° |
| 2026-05-07 20:21 | 14.81082 | 120.64430 | 14793 ft | 385 kts | 208° |
| 2026-05-07 20:21 | 14.78732 | 120.63085 | 15248 ft | 388 kts | 208° |
| 2026-05-07 20:21 | 14.76359 | 120.61735 | 15693 ft | 391 kts | 208° |
| 2026-05-07 20:22 | 14.73961 | 120.60379 | 16110 ft | 394 kts | 207° |
| 2026-05-07 20:22 | 14.71541 | 120.59016 | 16527 ft | 398 kts | 208° |
| 2026-05-07 20:22 | 14.69098 | 120.57642 | 16950 ft | 401 kts | 207° |
| 2026-05-07 20:22 | 14.66646 | 120.56263 | 17362 ft | 403 kts | 207° |
| 2026-05-07 20:23 | 14.64174 | 120.54872 | 17795 ft | 406 kts | 207° |
| 2026-05-07 20:23 | 14.61691 | 120.53475 | 18196 ft | 408 kts | 207° |
| 2026-05-07 20:23 | 14.59223 | 120.52089 | 18553 ft | 410 kts | 207° |
| 2026-05-07 20:23 | 14.56706 | 120.50677 | 18906 ft | 412 kts | 207° |
| 2026-05-07 20:24 | 14.54181 | 120.49260 | 19252 ft | 414 kts | 207° |
| 2026-05-07 20:24 | 14.51643 | 120.47833 | 19623 ft | 416 kts | 207° |
| 2026-05-07 20:24 | 14.49097 | 120.46404 | 19985 ft | 418 kts | 208° |
| 2026-05-07 20:24 | 14.46615 | 120.45012 | 20314 ft | 420 kts | 208° |
| 2026-05-07 20:25 | 14.44041 | 120.43564 | 20645 ft | 422 kts | 208° |
| 2026-05-07 20:25 | 14.41459 | 120.42110 | 20990 ft | 424 kts | 208° |
| 2026-05-07 20:25 | 14.38859 | 120.40646 | 21317 ft | 426 kts | 208° |
| 2026-05-07 20:25 | 14.36256 | 120.39179 | 21673 ft | 427 kts | 208° |
| 2026-05-07 20:26 | 14.33639 | 120.37705 | 22039 ft | 428 kts | 208° |
| 2026-05-07 20:26 | 14.31018 | 120.36233 | 22378 ft | 430 kts | 208° |
| 2026-05-07 20:26 | 14.28384 | 120.34759 | 22703 ft | 432 kts | 208° |
| 2026-05-07 20:26 | 14.25736 | 120.33277 | 23035 ft | 434 kts | 208° |
| 2026-05-07 20:27 | 14.23080 | 120.31792 | 23359 ft | 435 kts | 208° |
| 2026-05-07 20:27 | 14.20411 | 120.30299 | 23629 ft | 437 kts | 208° |
| 2026-05-07 20:27 | 14.17734 | 120.28800 | 23876 ft | 440 kts | 208° |
| 2026-05-07 20:27 | 14.15039 | 120.27290 | 24122 ft | 442 kts | 208° |
| 2026-05-07 20:28 | 14.12328 | 120.25771 | 24370 ft | 444 kts | 208° |
| 2026-05-07 20:28 | 14.09648 | 120.24268 | 24617 ft | 445 kts | 208° |
| 2026-05-07 20:28 | 14.06922 | 120.22742 | 24862 ft | 447 kts | 208° |
| 2026-05-07 20:28 | 14.04189 | 120.21212 | 25108 ft | 448 kts | 208° |
| 2026-05-07 20:29 | 14.01440 | 120.19674 | 25352 ft | 450 kts | 208° |
| 2026-05-07 20:29 | 13.98681 | 120.18131 | 25587 ft | 452 kts | 208° |
| 2026-05-07 20:29 | 13.95911 | 120.16582 | 25825 ft | 454 kts | 208° |
| 2026-05-07 20:29 | 13.93132 | 120.15033 | 26068 ft | 455 kts | 207° |
| 2026-05-07 20:30 | 13.90199 | 120.13806 | 26308 ft | 457 kts | 195° |
| 2026-05-07 20:30 | 13.87073 | 120.13218 | 26534 ft | 459 kts | 184° |
| 2026-05-07 20:30 | 13.83880 | 120.13307 | 26772 ft | 460 kts | 172° |
| 2026-05-07 20:30 | 13.80768 | 120.14066 | 26977 ft | 462 kts | 160° |
| 2026-05-07 20:31 | 13.77861 | 120.15475 | 27204 ft | 463 kts | 148° |
| 2026-05-07 20:31 | 13.75114 | 120.17216 | 27423 ft | 465 kts | 148° |
| 2026-05-07 20:31 | 13.72354 | 120.18960 | 27634 ft | 466 kts | 148° |
| 2026-05-07 20:31 | 13.69585 | 120.20702 | 27856 ft | 468 kts | 148° |
| 2026-05-07 20:32 | 13.66797 | 120.22454 | 28075 ft | 469 kts | 148° |
| 2026-05-07 20:32 | 13.64006 | 120.24206 | 28251 ft | 472 kts | 148° |
| 2026-05-07 20:32 | 13.62148 | 120.25373 | 28382 ft | 473 kts | 148° |
| 2026-05-07 20:32 | 13.59340 | 120.27141 | 28579 ft | 475 kts | 148° |
| 2026-05-07 20:33 | 13.56518 | 120.28918 | 28770 ft | 476 kts | 148° |
| 2026-05-07 20:33 | 13.53689 | 120.30698 | 28999 ft | 477 kts | 148° |
| 2026-05-07 20:33 | 13.49932 | 120.33059 | 29276 ft | 479 kts | 148° |
| 2026-05-07 20:33 | 13.48014 | 120.34264 | 29409 ft | 480 kts | 148° |
| 2026-05-07 20:34 | 13.44241 | 120.36634 | 29778 ft | 479 kts | 148° |
| 2026-05-07 20:34 | 13.42323 | 120.37840 | 29966 ft | 479 kts | 148° |
| 2026-05-07 20:34 | 13.39480 | 120.39625 | 30206 ft | 478 kts | 149° |
| 2026-05-07 20:34 | 13.36502 | 120.41127 | 30453 ft | 477 kts | 160° |
| 2026-05-07 20:35 | 13.33307 | 120.42003 | 30703 ft | 475 kts | 172° |
| 2026-05-07 20:35 | 13.30024 | 120.42223 | 30944 ft | 473 kts | 183° |
| 2026-05-07 20:35 | 13.26772 | 120.41801 | 31185 ft | 471 kts | 194° |
| 2026-05-07 20:35 | 13.23666 | 120.40755 | 31436 ft | 469 kts | 205° |
| 2026-05-07 20:36 | 13.20714 | 120.39343 | 31676 ft | 468 kts | 206° |
| 2026-05-07 20:36 | 13.17804 | 120.37940 | 31899 ft | 468 kts | 206° |
| 2026-05-07 20:36 | 13.14862 | 120.36522 | 32143 ft | 467 kts | 206° |
| 2026-05-07 20:36 | 13.11920 | 120.35109 | 32397 ft | 467 kts | 206° |
| 2026-05-07 20:37 | 13.08983 | 120.33703 | 32661 ft | 466 kts | 206° |
| 2026-05-07 20:37 | 13.06048 | 120.32296 | 32921 ft | 465 kts | 206° |
| 2026-05-07 20:37 | 13.03125 | 120.30895 | 33180 ft | 464 kts | 206° |
| 2026-05-07 20:37 | 13.00202 | 120.29496 | 33442 ft | 463 kts | 206° |
| 2026-05-07 20:38 | 12.97283 | 120.28097 | 33703 ft | 462 kts | 206° |
| 2026-05-07 20:38 | 12.94380 | 120.26706 | 33977 ft | 459 kts | 206° |
| 2026-05-07 20:38 | 12.91489 | 120.25324 | 34247 ft | 457 kts | 206° |
| 2026-05-07 20:38 | 12.88613 | 120.23950 | 34480 ft | 456 kts | 206° |
| 2026-05-07 20:39 | 12.85738 | 120.22575 | 34692 ft | 455 kts | 206° |
| 2026-05-07 20:39 | 12.82871 | 120.21200 | 34888 ft | 455 kts | 206° |
| 2026-05-07 20:39 | 12.80041 | 120.19842 | 35074 ft | 454 kts | 206° |
| 2026-05-07 20:39 | 12.77180 | 120.18471 | 35258 ft | 454 kts | 206° |
| 2026-05-07 20:40 | 12.74319 | 120.17103 | 35439 ft | 453 kts | 206° |
| 2026-05-07 20:40 | 12.71464 | 120.15740 | 35614 ft | 453 kts | 206° |
| 2026-05-07 20:40 | 12.68605 | 120.14377 | 35780 ft | 453 kts | 206° |
| 2026-05-07 20:41 | 12.62908 | 120.11655 | 35839 ft | 450 kts | 206° |
| 2026-05-07 20:41 | 12.57231 | 120.08942 | 35838 ft | 451 kts | 206° |
| 2026-05-07 20:42 | 12.51536 | 120.06228 | 35837 ft | 452 kts | 206° |
| 2026-05-07 20:42 | 12.45838 | 120.03514 | 35838 ft | 451 kts | 206° |
| 2026-05-07 20:43 | 12.40147 | 120.00794 | 35839 ft | 451 kts | 206° |
| 2026-05-07 20:43 | 12.34456 | 119.98075 | 35845 ft | 451 kts | 206° |
| 2026-05-07 20:44 | 12.28774 | 119.95365 | 35852 ft | 450 kts | 206° |
| 2026-05-07 20:44 | 12.23097 | 119.92665 | 35856 ft | 450 kts | 206° |
| 2026-05-07 20:45 | 12.17422 | 119.89966 | 35856 ft | 449 kts | 206° |
| 2026-05-07 20:45 | 12.11794 | 119.87292 | 35854 ft | 449 kts | 206° |
| 2026-05-07 20:46 | 12.06130 | 119.84601 | 35851 ft | 449 kts | 206° |
| 2026-05-07 20:46 | 12.00472 | 119.81910 | 35850 ft | 448 kts | 206° |
| 2026-05-07 20:47 | 11.94821 | 119.79224 | 35852 ft | 447 kts | 206° |
| 2026-05-07 20:47 | 11.89176 | 119.76543 | 35848 ft | 448 kts | 206° |
| 2026-05-07 20:48 | 11.83529 | 119.73862 | 35846 ft | 448 kts | 206° |
| 2026-05-07 20:48 | 11.77880 | 119.71193 | 35845 ft | 448 kts | 206° |
| 2026-05-07 20:49 | 11.72304 | 119.68386 | 35842 ft | 445 kts | 214° |
| 2026-05-07 20:49 | 11.67733 | 119.64224 | 35845 ft | 441 kts | 233° |
| 2026-05-07 20:50 | 11.64131 | 119.59170 | 35848 ft | 440 kts | 234° |
| 2026-05-07 20:50 | 11.60544 | 119.54150 | 35845 ft | 440 kts | 234° |
| 2026-05-07 20:51 | 11.56930 | 119.49096 | 35832 ft | 441 kts | 234° |
| 2026-05-07 20:51 | 11.53305 | 119.44032 | 35827 ft | 442 kts | 234° |
| 2026-05-07 20:52 | 11.49665 | 119.38960 | 35827 ft | 443 kts | 234° |
| 2026-05-07 20:52 | 11.46028 | 119.33885 | 35830 ft | 443 kts | 234° |
| 2026-05-07 20:53 | 11.42400 | 119.28806 | 35835 ft | 443 kts | 234° |
| 2026-05-07 20:53 | 11.38763 | 119.23729 | 35836 ft | 443 kts | 234° |
| 2026-05-07 20:54 | 11.35146 | 119.18694 | 35834 ft | 443 kts | 234° |
| 2026-05-07 20:54 | 11.31498 | 119.13625 | 35826 ft | 444 kts | 234° |
| 2026-05-07 20:55 | 11.27854 | 119.08538 | 35831 ft | 444 kts | 234° |
| 2026-05-07 20:55 | 11.24203 | 119.03452 | 35832 ft | 444 kts | 234° |
| 2026-05-07 20:56 | 11.20551 | 118.98377 | 35834 ft | 444 kts | 234° |
| 2026-05-07 20:56 | 11.16896 | 118.93302 | 35837 ft | 444 kts | 234° |
| 2026-05-07 20:57 | 11.13270 | 118.88260 | 35840 ft | 444 kts | 234° |
| 2026-05-07 20:57 | 11.09623 | 118.83180 | 35836 ft | 445 kts | 234° |
| 2026-05-07 20:58 | 11.05969 | 118.78107 | 35840 ft | 445 kts | 234° |
| 2026-05-07 20:58 | 11.02307 | 118.73030 | 35842 ft | 445 kts | 234° |
| 2026-05-07 20:59 | 10.98645 | 118.67957 | 35838 ft | 445 kts | 234° |
| 2026-05-07 20:59 | 10.94986 | 118.62881 | 35840 ft | 445 kts | 234° |
| 2026-05-07 21:00 | 10.91327 | 118.57809 | 35833 ft | 445 kts | 234° |
| 2026-05-07 21:00 | 10.87667 | 118.52732 | 35839 ft | 445 kts | 234° |
| 2026-05-07 21:01 | 10.84004 | 118.47658 | 35837 ft | 445 kts | 234° |
| 2026-05-07 21:01 | 10.80339 | 118.42583 | 35836 ft | 445 kts | 234° |
| 2026-05-07 21:02 | 10.76674 | 118.37513 | 35837 ft | 445 kts | 234° |
| 2026-05-07 21:02 | 10.73003 | 118.32448 | 35837 ft | 445 kts | 234° |
| 2026-05-07 21:03 | 10.69339 | 118.27377 | 35839 ft | 445 kts | 234° |
| 2026-05-07 21:03 | 10.65673 | 118.22311 | 35836 ft | 445 kts | 234° |
| 2026-05-07 21:04 | 10.62005 | 118.17244 | 35838 ft | 445 kts | 234° |
| 2026-05-07 21:04 | 10.58340 | 118.12182 | 35834 ft | 445 kts | 234° |
| 2026-05-07 21:05 | 10.54668 | 118.07123 | 35843 ft | 444 kts | 234° |
| 2026-05-07 21:05 | 10.50996 | 118.02064 | 35837 ft | 445 kts | 234° |
| 2026-05-07 21:06 | 10.47321 | 117.97002 | 35833 ft | 445 kts | 234° |
| 2026-05-07 21:06 | 10.43646 | 117.91937 | 35836 ft | 445 kts | 234° |
| 2026-05-07 21:07 | 10.39974 | 117.86862 | 35833 ft | 446 kts | 234° |
| 2026-05-07 21:07 | 10.36324 | 117.81831 | 35840 ft | 445 kts | 234° |
| 2026-05-07 21:08 | 10.32649 | 117.76762 | 35836 ft | 446 kts | 234° |
| 2026-05-07 21:08 | 10.29006 | 117.71668 | 35839 ft | 446 kts | 234° |
| 2026-05-07 21:09 | 10.25369 | 117.66567 | 35839 ft | 446 kts | 235° |
| 2026-05-07 21:09 | 10.21727 | 117.61477 | 35837 ft | 446 kts | 234° |
| 2026-05-07 21:10 | 10.18076 | 117.56387 | 35844 ft | 446 kts | 234° |
| 2026-05-07 21:10 | 10.14426 | 117.51297 | 35834 ft | 446 kts | 234° |
| 2026-05-07 21:11 | 10.10771 | 117.46213 | 35844 ft | 446 kts | 234° |
| 2026-05-07 21:11 | 10.05278 | 117.38576 | 35825 ft | 447 kts | 234° |
| 2026-05-07 21:12 | 10.01645 | 117.33515 | 35823 ft | 447 kts | 234° |
| 2026-05-07 21:12 | 9.97985 | 117.28411 | 35832 ft | 447 kts | 234° |
| 2026-05-07 21:13 | 9.94318 | 117.23304 | 35829 ft | 448 kts | 234° |
| 2026-05-07 21:13 | 9.90641 | 117.18204 | 35826 ft | 448 kts | 234° |
| 2026-05-07 21:14 | 9.86963 | 117.13102 | 35826 ft | 448 kts | 234° |
| 2026-05-07 21:14 | 9.83276 | 117.07989 | 35823 ft | 449 kts | 234° |
| 2026-05-07 21:15 | 9.79588 | 117.02877 | 35825 ft | 449 kts | 234° |
| 2026-05-07 21:15 | 9.75899 | 116.97756 | 35820 ft | 450 kts | 234° |
| 2026-05-07 21:16 | 9.72216 | 116.92630 | 35820 ft | 450 kts | 234° |
| 2026-05-07 21:16 | 9.68518 | 116.87495 | 35825 ft | 451 kts | 234° |
| 2026-05-07 21:17 | 9.64813 | 116.82367 | 35827 ft | 451 kts | 234° |
| 2026-05-07 21:17 | 9.61097 | 116.77230 | 35831 ft | 452 kts | 234° |
| 2026-05-07 21:18 | 9.57389 | 116.72095 | 35823 ft | 452 kts | 234° |
| 2026-05-07 21:18 | 9.53698 | 116.66984 | 35824 ft | 452 kts | 234° |
| 2026-05-07 21:19 | 9.49955 | 116.61807 | 35833 ft | 452 kts | 234° |
| 2026-05-07 21:19 | 9.46241 | 116.56668 | 35826 ft | 452 kts | 234° |
| 2026-05-07 21:20 | 9.42521 | 116.51519 | 35821 ft | 453 kts | 234° |
| 2026-05-07 21:20 | 9.38817 | 116.46406 | 35816 ft | 454 kts | 234° |
| 2026-05-07 21:21 | 9.35084 | 116.41246 | 35824 ft | 454 kts | 234° |
| 2026-05-07 21:21 | 9.31341 | 116.36090 | 35826 ft | 454 kts | 234° |
| 2026-05-07 21:22 | 9.27599 | 116.30928 | 35825 ft | 455 kts | 234° |
| 2026-05-07 21:22 | 9.23855 | 116.25770 | 35840 ft | 455 kts | 234° |
| 2026-05-07 21:23 | 9.20087 | 116.20619 | 35828 ft | 455 kts | 234° |
| 2026-05-07 21:23 | 9.16954 | 116.16343 | 35821 ft | 455 kts | 234° |
| 2026-05-07 21:24 | 9.13180 | 116.11189 | 35814 ft | 456 kts | 234° |
| 2026-05-07 21:24 | 9.09400 | 116.06024 | 35817 ft | 457 kts | 234° |
| 2026-05-07 21:25 | 9.05618 | 116.00856 | 35820 ft | 457 kts | 234° |
| 2026-05-07 21:25 | 9.01836 | 115.95689 | 35822 ft | 457 kts | 234° |
| 2026-05-07 21:26 | 8.98047 | 115.90516 | 35823 ft | 458 kts | 234° |
| 2026-05-07 21:26 | 8.94257 | 115.85340 | 35823 ft | 458 kts | 235° |
| 2026-05-07 21:27 | 8.90461 | 115.80156 | 35820 ft | 458 kts | 235° |
| 2026-05-07 21:27 | 8.86668 | 115.74970 | 35815 ft | 458 kts | 235° |
| 2026-05-07 21:28 | 8.82867 | 115.69789 | 35815 ft | 459 kts | 234° |
| 2026-05-07 21:28 | 8.79062 | 115.64604 | 35812 ft | 459 kts | 234° |
| 2026-05-07 21:29 | 8.75260 | 115.59414 | 35824 ft | 459 kts | 235° |
| 2026-05-07 21:29 | 8.71445 | 115.54228 | 35822 ft | 460 kts | 235° |
| 2026-05-07 21:30 | 8.67654 | 115.49078 | 35824 ft | 460 kts | 235° |
| 2026-05-07 21:30 | 8.63812 | 115.43853 | 35824 ft | 460 kts | 235° |
| 2026-05-07 21:31 | 8.60023 | 115.38694 | 35830 ft | 460 kts | 235° |
| 2026-05-07 21:31 | 8.56217 | 115.33500 | 35821 ft | 460 kts | 234° |
| 2026-05-07 21:32 | 8.52400 | 115.28313 | 35819 ft | 460 kts | 235° |
| 2026-05-07 21:32 | 8.48579 | 115.23122 | 35822 ft | 460 kts | 235° |
| 2026-05-07 21:33 | 8.44757 | 115.17927 | 35818 ft | 461 kts | 235° |
| 2026-05-07 21:33 | 8.40937 | 115.12730 | 35827 ft | 461 kts | 235° |
| 2026-05-07 21:34 | 8.37105 | 115.07543 | 35826 ft | 461 kts | 234° |
| 2026-05-07 21:34 | 8.33267 | 115.02353 | 35818 ft | 461 kts | 235° |
| 2026-05-07 21:35 | 8.29446 | 114.97157 | 35830 ft | 461 kts | 235° |
| 2026-05-07 21:35 | 8.25625 | 114.91958 | 35827 ft | 461 kts | 235° |
| 2026-05-07 21:36 | 8.21799 | 114.86761 | 35813 ft | 461 kts | 234° |
| 2026-05-07 21:36 | 8.17971 | 114.81569 | 35825 ft | 461 kts | 234° |
| 2026-05-07 21:37 | 8.14152 | 114.76399 | 35822 ft | 461 kts | 234° |
| 2026-05-07 21:37 | 8.10318 | 114.71207 | 35823 ft | 462 kts | 234° |
| 2026-05-07 21:38 | 8.06481 | 114.66011 | 35824 ft | 462 kts | 234° |
| 2026-05-07 21:38 | 8.02640 | 114.60822 | 35826 ft | 462 kts | 234° |
| 2026-05-07 21:39 | 7.98793 | 114.55630 | 35826 ft | 462 kts | 234° |
| 2026-05-07 21:39 | 7.94956 | 114.50431 | 35826 ft | 462 kts | 234° |
| 2026-05-07 21:40 | 7.91120 | 114.45239 | 35823 ft | 462 kts | 234° |
| 2026-05-07 21:40 | 7.87274 | 114.40050 | 35822 ft | 462 kts | 234° |
| 2026-05-07 21:41 | 7.83423 | 114.34856 | 35824 ft | 462 kts | 234° |
| 2026-05-07 21:41 | 7.79579 | 114.29660 | 35825 ft | 462 kts | 234° |
| 2026-05-07 21:42 | 7.75729 | 114.24464 | 35827 ft | 462 kts | 234° |
| 2026-05-07 21:42 | 7.71872 | 114.19272 | 35828 ft | 462 kts | 234° |
| 2026-05-07 21:43 | 7.68044 | 114.14111 | 35827 ft | 462 kts | 234° |
| 2026-05-07 21:43 | 7.64199 | 114.08919 | 35827 ft | 462 kts | 234° |
| 2026-05-07 21:44 | 7.60351 | 114.03733 | 35825 ft | 462 kts | 234° |
| 2026-05-07 21:44 | 7.56499 | 113.98542 | 35824 ft | 462 kts | 234° |
| 2026-05-07 21:45 | 7.52647 | 113.93356 | 35826 ft | 462 kts | 234° |
| 2026-05-07 21:45 | 7.48798 | 113.88173 | 35822 ft | 462 kts | 234° |
| 2026-05-07 21:46 | 7.44944 | 113.82986 | 35824 ft | 462 kts | 234° |
| 2026-05-07 21:46 | 7.41090 | 113.77802 | 35824 ft | 462 kts | 234° |
| 2026-05-07 21:47 | 7.37231 | 113.72618 | 35826 ft | 462 kts | 234° |
| 2026-05-07 21:47 | 7.33378 | 113.67437 | 35830 ft | 462 kts | 234° |
| 2026-05-07 21:48 | 7.29535 | 113.62262 | 35827 ft | 461 kts | 234° |
| 2026-05-07 21:48 | 7.25691 | 113.57083 | 35827 ft | 461 kts | 234° |
| 2026-05-07 21:49 | 7.21843 | 113.51913 | 35827 ft | 461 kts | 234° |
| 2026-05-07 21:49 | 7.17989 | 113.46747 | 35826 ft | 461 kts | 234° |
| 2026-05-07 21:50 | 7.14139 | 113.41576 | 35828 ft | 461 kts | 234° |
| 2026-05-07 21:50 | 7.10289 | 113.36408 | 35827 ft | 461 kts | 234° |
| 2026-05-07 21:51 | 7.06443 | 113.31251 | 35825 ft | 461 kts | 234° |
| 2026-05-07 21:51 | 7.02616 | 113.26123 | 35826 ft | 461 kts | 234° |
| 2026-05-07 21:52 | 6.98774 | 113.20969 | 35825 ft | 461 kts | 234° |
| 2026-05-07 21:52 | 6.94921 | 113.15805 | 35818 ft | 461 kts | 234° |
| 2026-05-07 21:53 | 6.91075 | 113.10646 | 35819 ft | 461 kts | 234° |
| 2026-05-07 21:53 | 6.87224 | 113.05485 | 35821 ft | 461 kts | 234° |
| 2026-05-07 21:54 | 6.83368 | 113.00331 | 35823 ft | 461 kts | 234° |
| 2026-05-07 21:54 | 6.79538 | 112.95213 | 35824 ft | 461 kts | 234° |
| 2026-05-07 21:55 | 6.75692 | 112.90057 | 35827 ft | 461 kts | 234° |
| 2026-05-07 21:55 | 6.71845 | 112.84907 | 35826 ft | 461 kts | 234° |
| 2026-05-07 21:56 | 6.67993 | 112.79755 | 35821 ft | 460 kts | 234° |
| 2026-05-07 21:56 | 6.64144 | 112.74596 | 35818 ft | 461 kts | 234° |
| 2026-05-07 21:57 | 6.60289 | 112.69447 | 35810 ft | 461 kts | 234° |
| 2026-05-07 21:57 | 6.56424 | 112.64283 | 35816 ft | 462 kts | 234° |
| 2026-05-07 21:58 | 6.52556 | 112.59120 | 35817 ft | 462 kts | 234° |
| 2026-05-07 21:58 | 6.48684 | 112.53957 | 35820 ft | 462 kts | 234° |
| 2026-05-07 21:59 | 6.44812 | 112.48797 | 35820 ft | 462 kts | 234° |
| 2026-05-07 21:59 | 6.40949 | 112.43625 | 35822 ft | 462 kts | 234° |
| 2026-05-07 22:00 | 6.37087 | 112.38455 | 35822 ft | 462 kts | 234° |
| 2026-05-07 22:00 | 6.33219 | 112.33290 | 35823 ft | 462 kts | 234° |
| 2026-05-07 22:01 | 6.29343 | 112.28126 | 35810 ft | 463 kts | 233° |
| 2026-05-07 22:01 | 6.25479 | 112.22988 | 35802 ft | 464 kts | 233° |
| 2026-05-07 22:02 | 6.21590 | 112.17810 | 35816 ft | 464 kts | 234° |
| 2026-05-07 22:02 | 6.17700 | 112.12625 | 35818 ft | 465 kts | 234° |
| 2026-05-07 22:03 | 6.13810 | 112.07438 | 35820 ft | 465 kts | 233° |
| 2026-05-07 22:03 | 6.09913 | 112.02248 | 35820 ft | 465 kts | 233° |
| 2026-05-07 22:04 | 6.06018 | 111.97056 | 35823 ft | 465 kts | 234° |
| 2026-05-07 22:04 | 6.02117 | 111.91875 | 35824 ft | 465 kts | 233° |
| 2026-05-07 22:05 | 5.98212 | 111.86686 | 35821 ft | 466 kts | 233° |
| 2026-05-07 22:05 | 5.94304 | 111.81484 | 35812 ft | 467 kts | 233° |
| 2026-05-07 22:06 | 5.90394 | 111.76274 | 35826 ft | 467 kts | 233° |
| 2026-05-07 22:06 | 5.86485 | 111.71067 | 35830 ft | 467 kts | 233° |
| 2026-05-07 22:07 | 5.82571 | 111.65857 | 35831 ft | 467 kts | 233° |
| 2026-05-07 22:07 | 5.78655 | 111.60657 | 35833 ft | 467 kts | 233° |
| 2026-05-07 22:08 | 5.74737 | 111.55460 | 35835 ft | 467 kts | 233° |
| 2026-05-07 22:08 | 5.70820 | 111.50255 | 35834 ft | 467 kts | 233° |
| 2026-05-07 22:09 | 5.66901 | 111.45051 | 35832 ft | 467 kts | 233° |
| 2026-05-07 22:09 | 5.62977 | 111.39853 | 35819 ft | 468 kts | 233° |
| 2026-05-07 22:10 | 5.59050 | 111.34640 | 35819 ft | 468 kts | 233° |
| 2026-05-07 22:10 | 5.55763 | 111.30268 | 35827 ft | 469 kts | 233° |
| 2026-05-07 22:11 | 5.51824 | 111.25048 | 35827 ft | 469 kts | 233° |
| 2026-05-07 22:11 | 5.47882 | 111.19828 | 35828 ft | 469 kts | 233° |
| 2026-05-07 22:12 | 5.43941 | 111.14599 | 35827 ft | 469 kts | 233° |
| 2026-05-07 22:12 | 5.39999 | 111.09367 | 35820 ft | 470 kts | 233° |
| 2026-05-07 22:13 | 5.36055 | 111.04138 | 35828 ft | 470 kts | 233° |
| 2026-05-07 22:13 | 5.32133 | 110.98940 | 35820 ft | 470 kts | 233° |
| 2026-05-07 22:14 | 5.28176 | 110.93704 | 35824 ft | 471 kts | 233° |
| 2026-05-07 22:14 | 5.24218 | 110.88469 | 35833 ft | 471 kts | 233° |
| 2026-05-07 22:15 | 5.20261 | 110.83232 | 35832 ft | 471 kts | 233° |
| 2026-05-07 22:15 | 5.16298 | 110.77989 | 35831 ft | 471 kts | 233° |
| 2026-05-07 22:16 | 5.12338 | 110.72747 | 35833 ft | 471 kts | 233° |
| 2026-05-07 22:16 | 5.08377 | 110.67509 | 35833 ft | 471 kts | 233° |
| 2026-05-07 22:17 | 5.04414 | 110.62272 | 35831 ft | 471 kts | 233° |
| 2026-05-07 22:17 | 5.00453 | 110.57031 | 35832 ft | 471 kts | 233° |
| 2026-05-07 22:18 | 4.94542 | 110.49209 | 35835 ft | 471 kts | 233° |
| 2026-05-07 22:19 | 4.90584 | 110.43976 | 35837 ft | 471 kts | 233° |
| 2026-05-07 22:19 | 4.86626 | 110.38742 | 35832 ft | 471 kts | 233° |
| 2026-05-07 22:20 | 4.82664 | 110.33512 | 35834 ft | 471 kts | 232° |
| 2026-05-07 22:20 | 4.78704 | 110.28282 | 35834 ft | 471 kts | 233° |
| 2026-05-07 22:21 | 4.74743 | 110.23047 | 35828 ft | 471 kts | 233° |
| 2026-05-07 22:21 | 4.70779 | 110.17810 | 35836 ft | 471 kts | 233° |
| 2026-05-07 22:22 | 4.66819 | 110.12582 | 35826 ft | 471 kts | 233° |
| 2026-05-07 22:22 | 4.62852 | 110.07350 | 35836 ft | 471 kts | 233° |
| 2026-05-07 22:23 | 4.58881 | 110.02124 | 35837 ft | 471 kts | 233° |
| 2026-05-07 22:23 | 4.54924 | 109.96907 | 35837 ft | 470 kts | 233° |
| 2026-05-07 22:24 | 4.50960 | 109.91682 | 35838 ft | 470 kts | 233° |
| 2026-05-07 22:24 | 4.46998 | 109.86463 | 35837 ft | 470 kts | 233° |
| 2026-05-07 22:25 | 4.43072 | 109.81269 | 35829 ft | 470 kts | 233° |
| 2026-05-07 22:25 | 4.39123 | 109.76046 | 35834 ft | 470 kts | 233° |
| 2026-05-07 22:26 | 4.35168 | 109.70830 | 35839 ft | 470 kts | 233° |
| 2026-05-07 22:26 | 4.31212 | 109.65625 | 35840 ft | 470 kts | 233° |
| 2026-05-07 22:27 | 4.27248 | 109.60422 | 35848 ft | 469 kts | 232° |
| 2026-05-07 22:27 | 4.23299 | 109.55230 | 35848 ft | 468 kts | 232° |
| 2026-05-07 22:28 | 4.19352 | 109.50036 | 35847 ft | 468 kts | 232° |
| 2026-05-07 22:28 | 4.15405 | 109.44841 | 35843 ft | 468 kts | 232° |
| 2026-05-07 22:29 | 4.11469 | 109.39651 | 35829 ft | 468 kts | 232° |
| 2026-05-07 22:29 | 4.07561 | 109.34503 | 35831 ft | 468 kts | 232° |
| 2026-05-07 22:30 | 4.03620 | 109.29319 | 35834 ft | 468 kts | 232° |
| 2026-05-07 22:30 | 3.99679 | 109.24137 | 35832 ft | 468 kts | 232° |
| 2026-05-07 22:31 | 3.95737 | 109.18952 | 35835 ft | 468 kts | 232° |
| 2026-05-07 22:31 | 3.91793 | 109.13765 | 35833 ft | 468 kts | 232° |
| 2026-05-07 22:32 | 3.87847 | 109.08584 | 35832 ft | 468 kts | 232° |
| 2026-05-07 22:32 | 3.83907 | 109.03409 | 35838 ft | 468 kts | 232° |
| 2026-05-07 22:33 | 3.79970 | 108.98225 | 35833 ft | 468 kts | 232° |
| 2026-05-07 22:33 | 3.76033 | 108.93045 | 35832 ft | 468 kts | 232° |
| 2026-05-07 22:34 | 3.72114 | 108.87896 | 35834 ft | 468 kts | 232° |
| 2026-05-07 22:34 | 3.68166 | 108.82711 | 35828 ft | 468 kts | 232° |
| 2026-05-07 22:35 | 3.64231 | 108.77529 | 35837 ft | 468 kts | 232° |
| 2026-05-07 22:35 | 3.60296 | 108.72339 | 35836 ft | 468 kts | 232° |
| 2026-05-07 22:36 | 3.56366 | 108.67150 | 35830 ft | 468 kts | 232° |
| 2026-05-07 22:36 | 3.52433 | 108.61965 | 35836 ft | 468 kts | 232° |
| 2026-05-07 22:37 | 3.48494 | 108.56780 | 35835 ft | 468 kts | 232° |
| 2026-05-07 22:37 | 3.44560 | 108.51591 | 35825 ft | 468 kts | 232° |
| 2026-05-07 22:38 | 3.40623 | 108.46406 | 35823 ft | 468 kts | 232° |
| 2026-05-07 22:38 | 3.36682 | 108.41222 | 35835 ft | 468 kts | 232° |
| 2026-05-07 22:39 | 3.32768 | 108.36068 | 35836 ft | 468 kts | 232° |
| 2026-05-07 22:39 | 3.28827 | 108.30879 | 35836 ft | 468 kts | 232° |
| 2026-05-07 22:40 | 3.24891 | 108.25697 | 35839 ft | 468 kts | 232° |
| 2026-05-07 22:40 | 3.20957 | 108.20517 | 35841 ft | 467 kts | 232° |
| 2026-05-07 22:41 | 3.17022 | 108.15343 | 35840 ft | 467 kts | 232° |
| 2026-05-07 22:41 | 3.13084 | 108.10166 | 35842 ft | 467 kts | 232° |
| 2026-05-07 22:42 | 3.09154 | 108.04990 | 35839 ft | 467 kts | 232° |
| 2026-05-07 22:42 | 3.05228 | 107.99821 | 35837 ft | 467 kts | 232° |
| 2026-05-07 22:43 | 3.01325 | 107.94681 | 35830 ft | 467 kts | 232° |
| 2026-05-07 22:43 | 2.97394 | 107.89514 | 35838 ft | 467 kts | 232° |
| 2026-05-07 22:44 | 2.93459 | 107.84348 | 35843 ft | 467 kts | 232° |
| 2026-05-07 22:44 | 2.89535 | 107.79181 | 35844 ft | 467 kts | 232° |
| 2026-05-07 22:45 | 2.85607 | 107.74016 | 35844 ft | 466 kts | 232° |
| 2026-05-07 22:45 | 2.81682 | 107.68856 | 35846 ft | 466 kts | 232° |
| 2026-05-07 22:46 | 2.77759 | 107.63702 | 35841 ft | 465 kts | 232° |
| 2026-05-07 22:46 | 2.73840 | 107.58548 | 35841 ft | 465 kts | 232° |
| 2026-05-07 22:47 | 2.69920 | 107.53398 | 35839 ft | 465 kts | 232° |
| 2026-05-07 22:47 | 2.66008 | 107.48249 | 35838 ft | 465 kts | 232° |
| 2026-05-07 22:48 | 2.62094 | 107.43107 | 35838 ft | 465 kts | 232° |
| 2026-05-07 22:48 | 2.58172 | 107.37972 | 35838 ft | 465 kts | 232° |
| 2026-05-07 22:49 | 2.54254 | 107.32830 | 35836 ft | 465 kts | 232° |
| 2026-05-07 22:49 | 2.50339 | 107.27685 | 35837 ft | 464 kts | 232° |
| 2026-05-07 22:50 | 2.46427 | 107.22548 | 35841 ft | 464 kts | 232° |
| 2026-05-07 22:50 | 2.42517 | 107.17415 | 35841 ft | 464 kts | 232° |
| 2026-05-07 22:51 | 2.38607 | 107.12284 | 35840 ft | 464 kts | 232° |
| 2026-05-07 22:51 | 2.34694 | 107.07149 | 35840 ft | 464 kts | 232° |
| 2026-05-07 22:52 | 2.30779 | 107.02024 | 35839 ft | 464 kts | 232° |
| 2026-05-07 22:52 | 2.26877 | 106.96942 | 35831 ft | 464 kts | 232° |
| 2026-05-07 22:53 | 2.22951 | 106.91826 | 35829 ft | 464 kts | 232° |
| 2026-05-07 22:53 | 2.19027 | 106.86706 | 35838 ft | 464 kts | 232° |
| 2026-05-07 22:54 | 2.15109 | 106.81584 | 35838 ft | 464 kts | 231° |
| 2026-05-07 22:54 | 2.11184 | 106.76471 | 35837 ft | 464 kts | 232° |
| 2026-05-07 22:55 | 2.07266 | 106.71344 | 35842 ft | 463 kts | 232° |
| 2026-05-07 22:55 | 2.03347 | 106.66222 | 35843 ft | 463 kts | 232° |
| 2026-05-07 22:56 | 1.99421 | 106.61109 | 35841 ft | 463 kts | 232° |
| 2026-05-07 22:56 | 1.95493 | 106.56002 | 35838 ft | 463 kts | 232° |
| 2026-05-07 22:57 | 1.91577 | 106.50887 | 35841 ft | 463 kts | 232° |
| 2026-05-07 22:57 | 1.87655 | 106.45770 | 35840 ft | 463 kts | 232° |
| 2026-05-07 22:58 | 1.83765 | 106.40690 | 35841 ft | 463 kts | 232° |
| 2026-05-07 22:58 | 1.79846 | 106.35571 | 35842 ft | 463 kts | 232° |
| 2026-05-07 22:59 | 1.75926 | 106.30467 | 35841 ft | 463 kts | 232° |
| 2026-05-07 22:59 | 1.72004 | 106.25357 | 35840 ft | 463 kts | 232° |
| 2026-05-07 23:00 | 1.68088 | 106.20244 | 35840 ft | 463 kts | 232° |
| 2026-05-07 23:00 | 1.64825 | 106.15992 | 35841 ft | 463 kts | 232° |
| 2026-05-07 23:01 | 1.60901 | 106.10889 | 35848 ft | 463 kts | 232° |
| 2026-05-07 23:01 | 1.56980 | 106.05774 | 35848 ft | 463 kts | 232° |
| 2026-05-07 23:02 | 1.53068 | 106.00657 | 35847 ft | 463 kts | 232° |
| 2026-05-07 23:02 | 1.49151 | 105.95545 | 35848 ft | 463 kts | 232° |
| 2026-05-07 23:03 | 1.45225 | 105.90438 | 35846 ft | 463 kts | 232° |
| 2026-05-07 23:03 | 1.41320 | 105.85351 | 35537 ft | 465 kts | 232° |
| 2026-05-07 23:03 | 1.39327 | 105.82750 | 35308 ft | 465 kts | 232° |
| 2026-05-07 23:04 | 1.37384 | 105.80216 | 35073 ft | 466 kts | 232° |
| 2026-05-07 23:04 | 1.35409 | 105.77639 | 34838 ft | 466 kts | 232° |
| 2026-05-07 23:04 | 1.33435 | 105.75059 | 34313 ft | 469 kts | 232° |
| 2026-05-07 23:04 | 1.31434 | 105.72449 | 33294 ft | 477 kts | 232° |
| 2026-05-07 23:05 | 1.29409 | 105.69806 | 32331 ft | 481 kts | 232° |
| 2026-05-07 23:05 | 1.27370 | 105.67135 | 31574 ft | 482 kts | 232° |
| 2026-05-07 23:05 | 1.25347 | 105.64481 | 30956 ft | 478 kts | 231° |
| 2026-05-07 23:05 | 1.23332 | 105.61843 | 30306 ft | 476 kts | 231° |
| 2026-05-07 23:06 | 1.21420 | 105.59150 | 29616 ft | 475 kts | 238° |
| 2026-05-07 23:06 | 1.19993 | 105.56185 | 28974 ft | 472 kts | 249° |
| 2026-05-07 23:06 | 1.19138 | 105.53035 | 28346 ft | 469 kts | 260° |
| 2026-05-07 23:06 | 1.18849 | 105.49805 | 27728 ft | 465 kts | 268° |
| 2026-05-07 23:07 | 1.18772 | 105.46583 | 27112 ft | 462 kts | 268° |
| 2026-05-07 23:07 | 1.18694 | 105.43386 | 26510 ft | 459 kts | 268° |
| 2026-05-07 23:07 | 1.18612 | 105.40204 | 25907 ft | 456 kts | 268° |
| 2026-05-07 23:07 | 1.18529 | 105.37042 | 25322 ft | 454 kts | 268° |
| 2026-05-07 23:08 | 1.18451 | 105.33943 | 24755 ft | 451 kts | 268° |
| 2026-05-07 23:08 | 1.18370 | 105.30783 | 24189 ft | 448 kts | 268° |
| 2026-05-07 23:08 | 1.18289 | 105.27720 | 23660 ft | 445 kts | 268° |
| 2026-05-07 23:08 | 1.18208 | 105.24779 | 23101 ft | 442 kts | 268° |
| 2026-05-07 23:09 | 1.18124 | 105.21733 | 22589 ft | 437 kts | 268° |
| 2026-05-07 23:09 | 1.18043 | 105.18714 | 22089 ft | 432 kts | 268° |
| 2026-05-07 23:09 | 1.17967 | 105.15753 | 21892 ft | 419 kts | 268° |
| 2026-05-07 23:09 | 1.17895 | 105.12892 | 21764 ft | 406 kts | 268° |
| 2026-05-07 23:10 | 1.17826 | 105.10114 | 21639 ft | 393 kts | 268° |
| 2026-05-07 23:10 | 1.17759 | 105.07422 | 21454 ft | 384 kts | 268° |
| 2026-05-07 23:10 | 1.17702 | 105.04772 | 21097 ft | 379 kts | 269° |
| 2026-05-07 23:10 | 1.17649 | 105.02145 | 20721 ft | 376 kts | 269° |
| 2026-05-07 23:11 | 1.17595 | 104.99538 | 20332 ft | 374 kts | 269° |
| 2026-05-07 23:11 | 1.17542 | 104.96952 | 19953 ft | 371 kts | 269° |
| 2026-05-07 23:11 | 1.17490 | 104.94380 | 19580 ft | 369 kts | 269° |
| 2026-05-07 23:11 | 1.17436 | 104.91829 | 19218 ft | 366 kts | 269° |
| 2026-05-07 23:12 | 1.17381 | 104.89295 | 18858 ft | 364 kts | 269° |
| 2026-05-07 23:12 | 1.17324 | 104.86766 | 18503 ft | 362 kts | 269° |
| 2026-05-07 23:12 | 1.17270 | 104.84278 | 18297 ft | 351 kts | 269° |
| 2026-05-07 23:12 | 1.17220 | 104.81937 | 18182 ft | 332 kts | 269° |
| 2026-05-07 23:13 | 1.17171 | 104.79670 | 17843 ft | 322 kts | 269° |
| 2026-05-07 23:13 | 1.17119 | 104.77450 | 17367 ft | 317 kts | 268° |
| 2026-05-07 23:13 | 1.17064 | 104.75268 | 16878 ft | 313 kts | 268° |
| 2026-05-07 23:13 | 1.17008 | 104.73109 | 16395 ft | 309 kts | 268° |
| 2026-05-07 23:14 | 1.16951 | 104.70969 | 15923 ft | 306 kts | 268° |
| 2026-05-07 23:14 | 1.16894 | 104.68851 | 15466 ft | 303 kts | 268° |
| 2026-05-07 23:14 | 1.16839 | 104.66754 | 15016 ft | 300 kts | 268° |
| 2026-05-07 23:14 | 1.16787 | 104.64683 | 14571 ft | 297 kts | 268° |
| 2026-05-07 23:15 | 1.16734 | 104.62628 | 14135 ft | 294 kts | 268° |
| 2026-05-07 23:15 | 1.16681 | 104.60593 | 13707 ft | 292 kts | 268° |
| 2026-05-07 23:15 | 1.16629 | 104.58578 | 13229 ft | 289 kts | 268° |
| 2026-05-07 23:15 | 1.16580 | 104.56583 | 12750 ft | 286 kts | 268° |
| 2026-05-07 23:16 | 1.16533 | 104.54611 | 12310 ft | 282 kts | 268° |
| 2026-05-07 23:16 | 1.16487 | 104.52651 | 12006 ft | 281 kts | 268° |
| 2026-05-07 23:16 | 1.16439 | 104.50706 | 11766 ft | 279 kts | 268° |
| 2026-05-07 23:16 | 1.16390 | 104.48777 | 11469 ft | 278 kts | 268° |
| 2026-05-07 23:17 | 1.16340 | 104.46855 | 11192 ft | 276 kts | 268° |
| 2026-05-07 23:17 | 1.16292 | 104.44945 | 10950 ft | 273 kts | 268° |
| 2026-05-07 23:17 | 1.16243 | 104.43044 | 10639 ft | 273 kts | 268° |
| 2026-05-07 23:17 | 1.16195 | 104.41181 | 10400 ft | 270 kts | 268° |
| 2026-05-07 23:18 | 1.16140 | 104.39303 | 10099 ft | 270 kts | 266° |
| 2026-05-07 23:18 | 1.16019 | 104.37443 | 9864 ft | 266 kts | 264° |
| 2026-05-07 23:18 | 1.15862 | 104.35603 | 9550 ft | 265 kts | 264° |
| 2026-05-07 23:18 | 1.15692 | 104.33776 | 9272 ft | 262 kts | 264° |
| 2026-05-07 23:19 | 1.15525 | 104.31972 | 9012 ft | 259 kts | 264° |
| 2026-05-07 23:19 | 1.15367 | 104.30187 | 8756 ft | 257 kts | 264° |
| 2026-05-07 23:19 | 1.15211 | 104.28418 | 8501 ft | 255 kts | 264° |
| 2026-05-07 23:19 | 1.15058 | 104.26660 | 8249 ft | 253 kts | 264° |
| 2026-05-07 23:20 | 1.14908 | 104.24911 | 8002 ft | 252 kts | 264° |
| 2026-05-07 23:20 | 1.14763 | 104.23171 | 7749 ft | 250 kts | 264° |
| 2026-05-07 23:20 | 1.14620 | 104.21441 | 7494 ft | 249 kts | 264° |
| 2026-05-07 23:20 | 1.14487 | 104.19720 | 7249 ft | 248 kts | 265° |
| 2026-05-07 23:21 | 1.14362 | 104.18003 | 7078 ft | 247 kts | 265° |
| 2026-05-07 23:21 | 1.14240 | 104.16296 | 7019 ft | 246 kts | 265° |
| 2026-05-07 23:21 | 1.14120 | 104.14579 | 6672 ft | 249 kts | 265° |
| 2026-05-07 23:21 | 1.14002 | 104.12851 | 6309 ft | 249 kts | 265° |
| 2026-05-07 23:22 | 1.13882 | 104.11129 | 6014 ft | 246 kts | 265° |
| 2026-05-07 23:22 | 1.13796 | 104.09420 | 5744 ft | 255 kts | 273° |
| 2026-05-07 23:22 | 1.14330 | 104.07678 | 5470 ft | 271 kts | 301° |
| 2026-05-07 23:22 | 1.15656 | 104.06351 | 5158 ft | 273 kts | 329° |
| 2026-05-07 23:23 | 1.17434 | 104.05828 | 5004 ft | 274 kts | 359° |
| 2026-05-07 23:23 | 1.19273 | 104.06141 | 5008 ft | 261 kts | 18° |
| 2026-05-07 23:23 | 1.20939 | 104.06700 | 5029 ft | 245 kts | 18° |
| 2026-05-07 23:23 | 1.22539 | 104.07233 | 5032 ft | 241 kts | 18° |
| 2026-05-07 23:24 | 1.24129 | 104.07760 | 5034 ft | 240 kts | 18° |
| 2026-05-07 23:24 | 1.25714 | 104.08288 | 5033 ft | 240 kts | 18° |
| 2026-05-07 23:24 | 1.27299 | 104.08816 | 5033 ft | 240 kts | 18° |
| 2026-05-07 23:24 | 1.28885 | 104.09343 | 5032 ft | 240 kts | 18° |
| 2026-05-07 23:25 | 1.30471 | 104.09873 | 5030 ft | 240 kts | 18° |
| 2026-05-07 23:25 | 1.32058 | 104.10404 | 5031 ft | 240 kts | 18° |
| 2026-05-07 23:25 | 1.33644 | 104.10934 | 5030 ft | 240 kts | 18° |
| 2026-05-07 23:25 | 1.35228 | 104.11463 | 5030 ft | 240 kts | 18° |
| 2026-05-07 23:26 | 1.36817 | 104.11993 | 5029 ft | 240 kts | 18° |
| 2026-05-07 23:26 | 1.38369 | 104.12511 | 4968 ft | 230 kts | 18° |
| 2026-05-07 23:26 | 1.39861 | 104.13010 | 4850 ft | 223 kts | 18° |
| 2026-05-07 23:26 | 1.41307 | 104.13495 | 4723 ft | 216 kts | 18° |
| 2026-05-07 23:27 | 1.44122 | 104.14436 | 4319 ft | 212 kts | 18° |
| 2026-05-07 23:27 | 1.45500 | 104.14893 | 4088 ft | 211 kts | 16° |
| 2026-05-07 23:27 | 1.46940 | 104.15007 | 3855 ft | 208 kts | 347° |
| 2026-05-07 23:28 | 1.48237 | 104.14415 | 3641 ft | 206 kts | 317° |
| 2026-05-07 23:28 | 1.49052 | 104.13272 | 3408 ft | 203 kts | 288° |
| 2026-05-07 23:28 | 1.49236 | 104.11890 | 3175 ft | 202 kts | 269° |
| 2026-05-07 23:28 | 1.49240 | 104.10488 | 2935 ft | 202 kts | 269° |
| 2026-05-07 23:29 | 1.49250 | 104.09081 | 2707 ft | 202 kts | 270° |
| 2026-05-07 23:29 | 1.49264 | 104.07677 | 2487 ft | 202 kts | 270° |
| 2026-05-07 23:29 | 1.49278 | 104.06282 | 2324 ft | 197 kts | 270° |
| 2026-05-07 23:29 | 1.49200 | 104.04961 | 2212 ft | 185 kts | 254° |
| 2026-05-07 23:30 | 1.48629 | 104.03861 | 2073 ft | 175 kts | 227° |
| 2026-05-07 23:30 | 1.47693 | 104.03150 | 1957 ft | 166 kts | 203° |
| 2026-05-07 23:30 | 1.46653 | 104.02710 | 1819 ft | 159 kts | 202° |
| 2026-05-07 23:30 | 1.45637 | 104.02281 | 1659 ft | 157 kts | 202° |
| 2026-05-07 23:31 | 1.44634 | 104.01857 | 1473 ft | 156 kts | 202° |
| 2026-05-07 23:31 | 1.43632 | 104.01434 | 1275 ft | 156 kts | 202° |
| 2026-05-07 23:31 | 1.42641 | 104.01016 | 1071 ft | 154 kts | 202° |
| 2026-05-07 23:31 | 1.41661 | 104.00602 | 892 ft | 150 kts | 202° |
| 2026-05-07 23:32 | 1.40728 | 104.00208 | 713 ft | 143 kts | 202° |
| 2026-05-07 23:32 | 1.39815 | 103.99823 | 538 ft | 141 kts | 203° |
| 2026-05-07 23:32 | 1.38915 | 103.99445 | 358 ft | 141 kts | 203° |
| 2026-05-07 23:32 | 1.38017 | 103.99067 | 159 ft | 140 kts | 205° |
| 2026-05-07 23:33 | 1.37124 | 103.98686 | 39 ft | 135 kts | 203° |
| 2026-05-07 23:33 | 1.36405 | 103.98382 | 30 ft | 96 kts | 203° |
| 2026-05-07 23:33 | 1.35926 | 103.98180 | 30 ft | 62 kts | 202° |
| 2026-05-07 23:33 | 1.35668 | 103.98110 | 30 ft | 31 kts | 180° |
| 2026-05-07 23:34 | 1.35456 | 103.98135 | 30 ft | 27 kts | 174° |
| 2026-05-07 23:34 | 1.35304 | 103.98112 | 30 ft | 22 kts | 203° |
| 2026-05-07 23:34 | 1.35157 | 103.98054 | 30 ft | 24 kts | 200° |
| 2026-05-07 23:34 | 1.35006 | 103.97987 | 31 ft | 25 kts | 204° |
| 2026-05-07 23:35 | 1.34841 | 103.97916 | 30 ft | 26 kts | 203° |
| 2026-05-07 23:35 | 1.34735 | 103.97915 | 31 ft | 14 kts | 124° |
| 2026-05-07 23:35 | 1.34700 | 103.97998 | 31 ft | 13 kts | 112° |
| 2026-05-07 23:35 | 1.34657 | 103.98100 | 31 ft | 20 kts | 113° |
| 2026-05-07 23:36 | 1.34592 | 103.98251 | 39 ft | 23 kts | 113° |
| 2026-05-07 23:36 | 1.34535 | 103.98387 | 44 ft | 21 kts | 113° |
| 2026-05-07 23:36 | 1.34470 | 103.98539 | 31 ft | 28 kts | 113° |
| 2026-05-07 23:36 | 1.34394 | 103.98718 | 31 ft | 27 kts | 113° |
| 2026-05-07 23:37 | 1.34300 | 103.98802 | 30 ft | 18 kts | 193° |
| 2026-05-07 23:37 | 1.34182 | 103.98754 | 36 ft | 19 kts | 202° |
| 2026-05-07 23:37 | 1.34049 | 103.98699 | 30 ft | 22 kts | 203° |
| 2026-05-07 23:37 | 1.33899 | 103.98635 | 30 ft | 24 kts | 202° |
| 2026-05-07 23:38 | 1.33737 | 103.98568 | 30 ft | 26 kts | 202° |
| 2026-05-07 23:38 | 1.33654 | 103.98517 | 30 ft | 10 kts | 252° |
| 2026-05-07 23:38 | 1.33643 | 103.98461 | 30 ft | 8 kts | 222° |
| 2026-05-07 23:38 | 1.33598 | 103.98440 | 30 ft | 7 kts | 204° |
| 2026-05-07 23:39 | 1.33550 | 103.98419 | 30 ft | 8 kts | 203° |
| 2026-05-07 23:39 | 1.33535 | 103.98378 | 30 ft | 6 kts | 286° |
| 2026-05-07 23:39 | 1.33541 | 103.98364 | 30 ft | 0 kts | 293° |
| 2026-05-07 23:39 | 1.33541 | 103.98363 | 30 ft | 0 kts | 293° |